FNLU/LAD METAR and TAF weather

Enter ICAO airport designator
Station Type Date Time Source
FNLU METAR 2018/04/26 17:00 UTC NOAA

FNLU 261700Z 26008KT 9999 SCT020 FEW023TCU 28/25 Q1008 NOSIG


Station Type Date Time Source
FNLU Decoded METAR 2018/04/26 17:00 UTC NOAA

Luanda, Angola (FNLU) 08-51S 013-14E 70M
Apr 26, 2018 - 01:00 PM EDT / 2018.04.26 1700 UTC
Wind: from the W (260 degrees) at 9 MPH (8 KT):0
Visibility: greater than 7 mile(s):0
Sky conditions: partly cloudy
Weather: Towering cumulus clouds observed
Temperature: 82 F (28 C)
Dew Point: 77 F (25 C)
Relative Humidity: 83%
Pressure (altimeter): 29.77 in. Hg (1008 hPa)
ob: FNLU 261700Z 26008KT 9999 SCT020 FEW023TCU 28/25 Q1008 NOSIG
cycle: 17

Station Type Date Time Source
FNLU TAF 2018/04/26 18:46 UTC NOAA

TAF FNLU 261700Z 2618/2724 25009KT 9999 SCT020
BECMG 2621/2624 VRB03KT 8000 SCT018
TEMPO 2703/2708 5000 BR FEW020
BECMG 2710/2713 32010KT 9999 FEW022
TEMPO 2713/2717 25008KT


Example: see airport list